Time;durP1;ratioP1;P1;durP2;ratioP2;P2;SDS_P1;SDS_P2;PMS_P1;PMS_P2;Temp;Humidity;BMP_temperature;BMP_pressure;BME280_temperature;BME280_humidity;BME280_pressure;Samples;Min_cycle;Max_cycle;Signal;HPM_P1;HPM_P2
2023/06/20 00:00:47;;;;;;;;;4.00;4.00;;;;;21.29;76.20;99535.63;5055446;28;45596;-74
2023/06/20 00:03:13;;;;;;;;;3.00;3.00;;;;;21.33;77.30;99533.72;5054708;28;46138;-73
2023/06/20 00:05:38;;;;;;;;;3.00;3.00;;;;;21.31;77.67;99533.78;5039846;28;45412;-74
2023/06/20 00:08:04;;;;;;;;;3.00;3.00;;;;;21.25;77.58;99526.88;5053898;28;45856;-74
2023/06/20 00:10:29;;;;;;;;;4.00;4.00;;;;;21.22;77.76;99521.63;5049951;28;45458;-74
2023/06/20 00:12:55;;;;;;;;;3.00;3.00;;;;;21.23;78.34;99527.84;5050217;28;45668;-72
2023/06/20 00:15:25;;;;;;;;;2.33;2.33;;;;;21.33;77.41;99549.66;5049647;28;45338;-73
2023/06/20 00:17:52;;;;;;;;;2.00;2.00;;;;;21.33;77.72;99568.25;5057651;28;45380;-74
2023/06/20 00:20:18;;;;;;;;;2.67;2.67;;;;;21.31;77.58;99570.09;5053543;28;45481;-72
2023/06/20 00:22:44;;;;;;;;;3.67;2.67;;;;;21.37;78.36;99577.91;5050172;28;45206;-74
2023/06/20 00:25:09;;;;;;;;;4.00;3.00;;;;;21.30;77.57;99587.81;5056626;28;45482;-72
2023/06/20 00:27:35;;;;;;;;;3.00;2.33;;;;;21.31;78.27;99613.47;5052782;28;45522;-74
2023/06/20 00:30:01;;;;;;;;;4.00;3.33;;;;;21.30;78.97;99650.72;5051800;28;45463;-73
2023/06/20 00:32:26;;;;;;;;;5.00;4.00;;;;;21.24;77.58;99703.06;5048675;28;45367;-74
2023/06/20 00:34:52;;;;;;;;;3.00;3.00;;;;;21.26;77.48;99753.50;5050472;28;46079;-73
2023/06/20 00:37:18;;;;;;;;;3.00;3.00;;;;;21.36;77.32;99770.94;5055385;28;45359;-74
2023/06/20 00:39:43;;;;;;;;;3.00;3.00;;;;;21.32;76.96;99734.75;5053931;28;45424;-72
2023/06/20 00:42:19;;;;;;;;;4.00;4.00;;;;;21.23;77.70;99698.69;5031181;28;45566;-72
2023/06/20 00:44:46;;;;;;;;;3.67;3.00;;;;;21.23;76.82;99648.22;5054719;28;45556;-71
2023/06/20 00:47:11;;;;;;;;;4.00;4.00;;;;;21.11;76.59;99607.84;5049304;28;45477;-71
2023/06/20 00:49:39;;;;;;;;;4.00;3.00;;;;;21.13;76.73;99632.56;5040009;28;45503;-71
2023/06/20 00:52:05;;;;;;;;;3.00;2.00;;;;;21.12;78.11;99655.63;5058085;28;45372;-71
2023/06/20 00:54:31;;;;;;;;;6.33;4.33;;;;;21.16;79.13;99689.13;5050689;28;46134;-72
2023/06/20 00:56:57;;;;;;;;;3.00;3.00;;;;;21.20;78.48;99711.19;5053163;28;45545;-72
2023/06/20 00:59:23;;;;;;;;;4.67;4.00;;;;;21.22;78.23;99704.91;5049599;28;45597;-71
2023/06/20 01:01:48;;;;;;;;;3.00;3.00;;;;;21.26;78.38;99698.59;5048700;28;45466;-72
2023/06/20 01:04:14;;;;;;;;;4.00;4.00;;;;;21.26;78.02;99682.66;5053406;28;46031;-71
2023/06/20 01:06:47;;;;;;;;;4.00;3.00;;;;;21.16;78.84;99670.53;5049095;28;45449;-72
2023/06/20 01:09:28;;;;;;;;;3.00;3.00;;;;;21.05;78.59;99654.91;5055733;28;45414;-71
2023/06/20 01:12:19;;;;;;;;;3.33;3.33;;;;;21.10;78.96;99640.66;5052259;28;45449;-72
2023/06/20 01:15:15;;;;;;;;;3.00;3.00;;;;;21.04;77.92;99625.75;5032807;28;46443;-72
2023/06/20 01:17:56;;;;;;;;;2.00;2.00;;;;;21.01;78.46;99636.47;5051240;28;45504;-71
2023/06/20 01:20:27;;;;;;;;;5.00;4.00;;;;;20.92;77.86;99640.22;5052000;28;45469;-72
2023/06/20 01:23:01;;;;;;;;;5.00;3.00;;;;;20.94;78.37;99648.16;5051300;28;45399;-72
2023/06/20 01:25:40;;;;;;;;;4.00;3.67;;;;;20.96;79.60;99679.06;5057240;28;45508;-72
2023/06/20 01:28:44;;;;;;;;;6.00;5.33;;;;;21.01;80.32;99700.19;5033189;28;45523;-72
2023/06/20 01:31:21;;;;;;;;;3.00;3.00;;;;;20.98;80.15;99679.03;4998771;28;45508;-72
2023/06/20 01:34:07;;;;;;;;;4.33;4.33;;;;;21.09;79.63;99684.03;5033273;28;45299;-72
2023/06/20 01:36:37;;;;;;;;;4.33;4.33;;;;;21.10;77.88;99669.84;5037988;28;45378;-71
2023/06/20 01:39:10;;;;;;;;;5.00;5.00;;;;;21.16;77.60;99645.78;5037855;28;45289;-72
2023/06/20 01:41:39;;;;;;;;;4.33;4.33;;;;;21.04;78.50;99623.97;5046755;28;45477;-72
2023/06/20 01:44:07;;;;;;;;;4.00;4.00;;;;;21.10;78.65;99632.69;5057579;28;45490;-72
2023/06/20 01:46:34;;;;;;;;;4.00;3.33;;;;;21.01;79.35;99610.78;5056212;28;46083;-72
2023/06/20 01:49:01;;;;;;;;;6.00;4.00;;;;;21.00;80.75;99610.81;5056008;28;45430;-72
2023/06/20 01:51:29;;;;;;;;;5.67;4.00;;;;;20.86;81.19;99606.75;5057771;28;45357;-72
2023/06/20 01:53:57;;;;;;;;;6.67;5.00;;;;;20.94;79.93;99629.56;5057677;28;45403;-72
2023/06/20 01:56:26;;;;;;;;;5.00;4.33;;;;;20.82;79.83;99599.78;5056992;28;46204;-72
2023/06/20 01:58:53;;;;;;;;;4.00;4.00;;;;;20.76;81.42;99617.66;5057868;28;45343;-71
2023/06/20 02:01:21;;;;;;;;;5.00;3.67;;;;;20.80;81.77;99612.22;5056510;28;45357;-71
2023/06/20 02:03:49;;;;;;;;;8.33;5.67;;;;;20.79;82.40;99604.28;5039991;28;45468;-71
2023/06/20 02:06:16;;;;;;;;;7.00;4.00;;;;;20.77;82.14;99607.03;5056179;28;45568;-73
2023/06/20 02:08:42;;;;;;;;;4.00;4.00;;;;;20.76;82.52;99622.97;5056656;28;45409;-71
2023/06/20 02:11:09;;;;;;;;;4.00;4.00;;;;;20.73;82.45;99620.38;5056905;28;45477;-72
2023/06/20 02:13:36;;;;;;;;;5.00;5.00;;;;;20.74;82.78;99623.00;5056674;28;45315;-71
2023/06/20 02:16:06;;;;;;;;;5.67;5.67;;;;;20.80;82.10;99616.69;5039366;28;45538;-72
2023/06/20 02:18:32;;;;;;;;;3.67;3.67;;;;;20.80;81.96;99617.53;5056722;28;45481;-72
2023/06/20 02:21:04;;;;;;;;;4.00;3.67;;;;;20.75;82.96;99624.78;5056816;28;45353;-72
2023/06/20 02:23:32;;;;;;;;;3.00;3.00;;;;;20.76;82.41;99615.88;5056943;28;45510;-72
2023/06/20 02:26:10;;;;;;;;;6.33;5.67;;;;;20.81;82.40;99607.78;5056646;28;46198;-72
2023/06/20 02:28:46;;;;;;;;;5.67;4.67;;;;;20.78;81.51;99615.84;5056341;28;45345;-71
2023/06/20 02:31:17;;;;;;;;;5.33;5.00;;;;;20.76;81.26;99615.88;5052482;28;45630;-72
2023/06/20 02:33:44;;;;;;;;;6.00;5.67;;;;;20.73;81.14;99615.09;5056356;28;45470;-71
2023/06/20 02:36:12;;;;;;;;;6.67;5.00;;;;;20.57;80.99;99582.75;5038055;28;46375;-72
2023/06/20 02:38:37;;;;;;;;;6.67;6.00;;;;;20.63;80.80;99607.38;5056427;28;45371;-71
2023/06/20 02:41:04;;;;;;;;;4.00;4.00;;;;;20.64;81.07;99608.25;5056166;28;45889;-71
2023/06/20 02:43:30;;;;;;;;;6.00;5.00;;;;;20.60;80.78;99588.88;5056770;28;45440;-71
2023/06/20 02:46:05;;;;;;;;;7.00;5.00;;;;;20.64;80.87;99602.94;5056167;28;46162;-71
2023/06/20 02:48:39;;;;;;;;;5.00;5.00;;;;;20.62;81.24;99604.75;5057513;28;45391;-72
2023/06/20 02:51:19;;;;;;;;;2.00;2.00;;;;;20.61;81.94;99606.56;5056043;28;46217;-72
2023/06/20 02:54:11;;;;;;;;;6.33;5.00;;;;;20.59;81.71;99596.88;5056290;28;45552;-74
2023/06/20 02:56:41;;;;;;;;;6.67;5.00;;;;;20.58;80.87;99584.50;5056205;28;46334;-74
2023/06/20 02:59:09;;;;;;;;;4.00;4.00;;;;;20.60;80.78;99577.41;5038825;28;45548;-74
2023/06/20 03:01:37;;;;;;;;;5.67;5.33;;;;;20.64;80.70;99574.63;5037215;28;45406;-74
2023/06/20 03:04:06;;;;;;;;;6.67;6.00;;;;;20.62;80.64;99570.25;5056485;28;45355;-74
2023/06/20 03:06:33;;;;;;;;;6.00;4.00;;;;;20.49;80.40;99559.06;5056265;28;45520;-75
2023/06/20 03:09:03;;;;;;;;;5.33;5.00;;;;;20.48;81.64;99575.03;5056083;28;45532;-73
2023/06/20 03:11:29;;;;;;;;;7.00;6.00;;;;;20.33;82.35;99563.91;5055609;28;45496;-74
2023/06/20 03:13:55;;;;;;;;;7.67;5.67;;;;;20.41;81.98;99583.16;5056203;28;45523;-74
2023/06/20 03:16:20;;;;;;;;;5.67;5.00;;;;;20.42;82.58;99582.25;5055655;28;45905;-72
2023/06/20 03:18:48;;;;;;;;;4.67;4.00;;;;;20.43;82.21;99576.03;5055917;28;45769;-74
2023/06/20 03:21:14;;;;;;;;;5.33;5.33;;;;;20.45;81.24;99586.59;5053506;28;45430;-75
2023/06/20 03:23:40;;;;;;;;;7.33;7.00;;;;;20.38;81.45;99571.75;5041592;28;45383;-75
2023/06/20 03:26:06;;;;;;;;;4.67;4.67;;;;;20.37;82.17;99589.47;5051589;28;47944;-75
2023/06/20 03:28:32;;;;;;;;;8.00;6.00;;;;;20.36;81.65;99590.34;5048888;28;45524;-75
2023/06/20 03:30:57;;;;;;;;;5.00;5.00;;;;;20.33;82.29;99598.38;5055471;28;45291;-73
2023/06/20 03:33:23;;;;;;;;;7.00;5.67;;;;;20.29;83.05;99602.00;5055911;28;45466;-74
2023/06/20 03:35:48;;;;;;;;;5.67;5.00;;;;;20.25;82.70;99610.97;5055602;28;46613;-75
2023/06/20 03:38:15;;;;;;;;;6.00;5.00;;;;;20.23;83.34;99615.44;5055697;28;45704;-72
2023/06/20 03:40:40;;;;;;;;;6.67;5.00;;;;;20.24;82.79;99615.41;5037010;28;45336;-72
2023/06/20 03:43:06;;;;;;;;;7.00;6.00;;;;;20.30;82.93;99624.13;5037784;28;45483;-71
2023/06/20 03:45:31;;;;;;;;;5.33;5.00;;;;;20.28;83.40;99621.50;5055324;28;46128;-75
2023/06/20 03:47:57;;;;;;;;;7.00;6.00;;;;;20.37;83.63;99633.66;5055487;28;45496;-72
2023/06/20 03:50:22;;;;;;;;;6.00;5.00;;;;;20.39;83.79;99642.44;5055226;28;45725;-74
2023/06/20 03:52:48;;;;;;;;;7.00;6.33;;;;;20.32;84.07;99633.78;5057922;28;45466;-73
2023/06/20 03:55:13;;;;;;;;;8.00;6.67;;;;;20.48;83.11;99644.88;5058845;28;45621;-74
2023/06/20 03:57:39;;;;;;;;;8.00;8.00;;;;;20.53;83.62;99650.06;5059283;28;45236;-75
2023/06/20 04:00:09;;;;;;;;;9.00;7.00;;;;;20.55;83.60;99649.13;5059426;28;45444;-71
2023/06/20 04:02:35;;;;;;;;;8.00;6.33;;;;;20.59;83.25;99649.94;5059102;28;45568;-72
2023/06/20 04:05:00;;;;;;;;;7.67;5.67;;;;;20.65;83.28;99647.13;5058543;28;45633;-71
2023/06/20 04:07:26;;;;;;;;;6.67;6.33;;;;;20.65;83.32;99648.03;5040589;28;45513;-73
2023/06/20 04:09:51;;;;;;;;;7.33;6.33;;;;;20.62;83.42;99639.25;5058986;28;45887;-71
2023/06/20 04:12:17;;;;;;;;;7.33;7.00;;;;;20.61;83.58;99641.06;5058529;28;45519;-72
2023/06/20 04:14:43;;;;;;;;;6.67;6.67;;;;;20.64;82.46;99632.13;5040625;28;47774;-72
2023/06/20 04:17:08;;;;;;;;;7.33;7.33;;;;;20.67;82.25;99642.66;5058695;28;45496;-72
2023/06/20 04:19:34;;;;;;;;;8.33;8.00;;;;;20.69;82.89;99655.88;5058796;28;45498;-72
2023/06/20 04:22:00;;;;;;;;;7.00;7.00;;;;;20.71;82.89;99654.97;5058261;28;45465;-72
2023/06/20 04:24:25;;;;;;;;;5.00;5.00;;;;;20.70;83.13;99655.84;5058392;28;45447;-72
2023/06/20 04:26:52;;;;;;;;;8.00;6.00;;;;;20.77;83.07;99665.41;5058567;28;45386;-72
2023/06/20 04:29:18;;;;;;;;;7.33;7.00;;;;;20.77;83.05;99678.69;5057656;28;45247;-71
2023/06/20 04:31:44;;;;;;;;;8.67;8.00;;;;;20.81;82.02;99680.34;5058802;28;45295;-71
2023/06/20 04:34:09;;;;;;;;;9.67;9.00;;;;;20.75;81.95;99661.94;5057946;28;46041;-72
2023/06/20 04:36:35;;;;;;;;;9.00;8.00;;;;;20.83;82.07;99673.22;5040840;28;46175;-72
2023/06/20 04:39:01;;;;;;;;;9.33;9.00;;;;;20.83;81.65;99673.22;5036683;28;45489;-72
2023/06/20 04:41:26;;;;;;;;;10.00;8.00;;;;;20.79;82.22;99668.91;5051204;28;45311;-73
2023/06/20 04:43:52;;;;;;;;;10.00;8.00;;;;;20.86;81.76;99682.88;5057387;28;47624;-72
2023/06/20 04:46:17;;;;;;;;;8.67;7.33;;;;;20.89;81.68;99682.81;5058850;28;45453;-72
2023/06/20 04:48:44;;;;;;;;;9.00;8.67;;;;;20.92;82.07;99684.50;5058333;28;45469;-73
2023/06/20 04:51:10;;;;;;;;;9.67;9.00;;;;;20.95;81.93;99685.28;5058815;28;45549;-73
2023/06/20 04:53:36;;;;;;;;;9.67;7.67;;;;;20.96;81.43;99680.84;5040183;28;45805;-72
2023/06/20 04:56:02;;;;;;;;;9.33;9.00;;;;;21.01;81.68;99678.97;5039803;28;45303;-72
2023/06/20 04:58:28;;;;;;;;;8.33;8.00;;;;;21.03;81.61;99683.31;5057472;28;45629;-74
2023/06/20 05:00:58;;;;;;;;;10.33;9.67;;;;;21.06;81.91;99687.66;5057303;28;45389;-72
2023/06/20 05:03:24;;;;;;;;;9.33;9.33;;;;;21.07;82.74;99692.06;5057404;28;45549;-72
2023/06/20 05:05:50;;;;;;;;;11.00;11.00;;;;;21.05;81.92;99693.88;5057817;28;45373;-72
2023/06/20 05:08:15;;;;;;;;;10.67;9.33;;;;;21.01;82.18;99686.91;5057339;28;45517;-72
2023/06/20 05:10:41;;;;;;;;;11.00;8.33;;;;;21.11;82.25;99696.38;5058571;28;45487;-73
2023/06/20 05:13:07;;;;;;;;;52.00;41.00;;;;;21.16;81.84;99693.59;5057777;28;45450;-72
2023/06/20 05:15:32;;;;;;;;;14.33;13.33;;;;;21.17;82.29;99705.94;5057984;28;45760;-72
2023/06/20 05:17:58;;;;;;;;;19.00;18.00;;;;;20.85;82.34;99660.78;5057604;28;45601;-74
2023/06/20 05:20:23;;;;;;;;;23.00;20.00;;;;;21.10;82.74;99694.63;5057639;28;45451;-72
2023/06/20 05:22:49;;;;;;;;;13.33;10.33;;;;;21.18;81.50;99705.91;5052631;28;45439;-73
2023/06/20 05:25:15;;;;;;;;;8.00;7.33;;;;;21.13;80.85;99698.97;5049207;28;45422;-72
2023/06/20 05:27:40;;;;;;;;;7.33;7.33;;;;;21.10;80.67;99697.28;5058124;28;45473;-72
2023/06/20 05:30:08;;;;;;;;;8.67;8.00;;;;;21.11;80.80;99693.72;5060197;28;45688;-72
2023/06/20 05:32:34;;;;;;;;;7.00;7.00;;;;;21.17;80.59;99682.03;5069746;28;46045;-72
2023/06/20 05:34:59;;;;;;;;;7.00;7.00;;;;;21.32;80.61;99686.94;5057488;28;45410;-73
2023/06/20 05:37:25;;;;;;;;;11.00;9.00;;;;;21.28;80.47;99695.03;5057513;28;45446;-72
2023/06/20 05:39:50;;;;;;;;;9.67;9.67;;;;;21.29;80.45;99684.38;5056459;28;45385;-72
2023/06/20 05:42:17;;;;;;;;;7.33;7.00;;;;;21.38;79.11;99680.59;5056549;28;46326;-72
2023/06/20 05:44:42;;;;;;;;;8.67;8.00;;;;;21.46;79.10;99673.28;5039671;28;45542;-73
2023/06/20 05:47:08;;;;;;;;;6.33;6.00;;;;;21.69;78.57;99666.47;5038871;28;45809;-72
2023/06/20 05:49:34;;;;;;;;;11.33;9.33;;;;;21.89;77.38;99648.09;5038860;28;45514;-72
2023/06/20 05:51:59;;;;;;;;;10.67;9.00;;;;;22.13;76.74;99654.44;5055929;28;45491;-72
2023/06/20 05:54:25;;;;;;;;;9.50;8.00;;;;;22.45;75.48;99657.88;5056629;28;45426;-72
2023/06/20 05:56:51;;;;;;;;;8.33;7.67;;;;;22.64;74.87;99648.38;5056947;28;45469;-71
2023/06/20 05:59:16;;;;;;;;;8.67;8.00;;;;;22.86;74.46;99644.06;5056144;28;45461;-72
2023/06/20 06:01:42;;;;;;;;;10.33;8.67;;;;;23.69;72.61;99623.28;5056648;28;45494;-70
2023/06/20 06:04:08;;;;;;;;;11.00;8.67;;;;;24.98;67.86;99633.16;5056895;28;45591;-72
2023/06/20 06:06:33;;;;;;;;;10.33;10.00;;;;;25.88;64.27;99627.28;5056718;28;45409;-72
2023/06/20 06:08:59;;;;;;;;;9.33;8.67;;;;;26.55;62.76;99631.16;5056345;28;45358;-74
2023/06/20 06:11:27;;;;;;;;;9.33;7.67;;;;;27.07;59.92;99612.41;5056370;28;46013;-75
2023/06/20 06:13:53;;;;;;;;;9.00;7.00;;;;;27.02;59.84;99635.03;5055058;28;45561;-71
2023/06/20 06:16:18;;;;;;;;;10.00;9.00;;;;;27.06;60.31;99623.19;5055671;28;45355;-72
2023/06/20 06:18:44;;;;;;;;;12.67;11.33;;;;;27.22;59.38;99632.19;5038573;28;45509;-71
2023/06/20 06:21:10;;;;;;;;;12.67;9.00;;;;;27.13;59.45;99630.84;5056324;28;45381;-71
2023/06/20 06:23:35;;;;;;;;;9.33;8.00;;;;;27.09;60.37;99625.75;5056346;28;45487;-74
2023/06/20 06:26:02;;;;;;;;;10.67;9.67;;;;;27.12;58.76;99622.91;5051709;28;45477;-72
2023/06/20 06:28:28;;;;;;;;;13.00;11.00;;;;;27.92;58.01;99626.63;5053360;28;45481;-73
2023/06/20 06:31:06;;;;;;;;;15.00;13.33;;;;;28.55;56.34;99631.06;5055702;28;45509;-75
2023/06/20 06:33:32;;;;;;;;;15.67;15.33;;;;;29.36;53.02;99627.97;5037751;28;45527;-74
2023/06/20 06:35:59;;;;;;;;;12.33;12.00;;;;;30.21;51.29;99630.66;5056471;28;45357;-73
2023/06/20 06:38:25;;;;;;;;;12.00;11.00;;;;;31.65;49.96;99636.06;5056159;28;45478;-74
2023/06/20 06:40:54;;;;;;;;;16.67;13.67;;;;;31.99;47.58;99631.75;5055619;28;45474;-74
2023/06/20 06:43:20;;;;;;;;;9.00;8.00;;;;;32.12;47.97;99645.28;5056055;28;45423;-72
2023/06/20 06:45:45;;;;;;;;;14.67;12.00;;;;;31.56;48.92;99653.81;5056634;28;45516;-75
2023/06/20 06:48:11;;;;;;;;;11.67;11.00;;;;;30.81;50.35;99673.34;5056191;28;45397;-75
2023/06/20 06:50:36;;;;;;;;;10.00;8.00;;;;;29.91;52.72;99688.25;5037892;28;45718;-74
2023/06/20 06:53:02;;;;;;;;;8.00;8.00;;;;;29.05;53.69;99690.81;5055995;28;45478;-74
2023/06/20 06:55:28;;;;;;;;;7.67;7.33;;;;;28.49;54.96;99699.44;5042673;28;45374;-74
2023/06/20 06:57:53;;;;;;;;;8.33;8.33;;;;;28.03;56.07;99688.63;5053571;28;45430;-74
2023/06/20 07:00:19;;;;;;;;;8.33;8.33;;;;;27.71;56.68;99710.00;5055263;28;45373;-74
2023/06/20 07:02:45;;;;;;;;;6.33;6.33;;;;;27.36;58.13;99719.97;5056540;28;45569;-73
2023/06/20 07:05:11;;;;;;;;;8.67;8.67;;;;;27.03;58.71;99723.41;5056405;28;45242;-73
2023/06/20 07:07:37;;;;;;;;;11.33;11.00;;;;;26.66;59.70;99727.09;5039449;28;45499;-74
2023/06/20 07:10:03;;;;;;;;;10.33;10.00;;;;;26.31;60.99;99737.69;5055383;28;45500;-75
2023/06/20 07:12:29;;;;;;;;;10.33;9.67;;;;;26.01;61.84;99740.88;5055897;28;45543;-73
2023/06/20 07:14:57;;;;;;;;;9.33;8.33;;;;;25.83;62.85;99747.91;5024647;28;45729;-72
2023/06/20 07:17:26;;;;;;;;;11.33;10.33;;;;;25.67;63.07;99754.91;5053215;28;45481;-73
2023/06/20 07:19:52;;;;;;;;;11.00;10.00;;;;;25.47;64.26;99764.69;5054741;28;46111;-73
2023/06/20 07:22:18;;;;;;;;;10.67;10.00;;;;;25.26;64.91;99750.44;5055351;28;45446;-74
2023/06/20 07:24:44;;;;;;;;;12.00;11.00;;;;;25.07;65.31;99749.44;5053670;28;45559;-75
2023/06/20 07:27:10;;;;;;;;;9.00;8.00;;;;;24.89;65.46;99746.66;5055786;28;45536;-74
2023/06/20 07:29:36;;;;;;;;;10.00;10.00;;;;;24.75;65.94;99749.88;5057638;28;45509;-74
2023/06/20 07:32:02;;;;;;;;;10.67;9.00;;;;;24.63;66.71;99755.75;5057599;28;45461;-75
2023/06/20 07:34:28;;;;;;;;;11.67;11.67;;;;;24.55;67.50;99757.81;5057589;28;45478;-75
2023/06/20 07:36:53;;;;;;;;;13.33;12.33;;;;;24.49;67.38;99758.94;5037701;28;45520;-73
2023/06/20 07:39:19;;;;;;;;;12.00;10.67;;;;;24.40;68.19;99753.94;5058456;28;46113;-71
2023/06/20 07:41:45;;;;;;;;;13.00;11.67;;;;;24.41;67.94;99758.34;5040632;28;45381;-72
2023/06/20 07:44:10;;;;;;;;;9.00;9.00;;;;;24.38;68.41;99764.69;5058376;28;45500;-72
2023/06/20 07:46:39;;;;;;;;;11.67;9.67;;;;;24.41;67.95;99759.22;5058320;28;45398;-72
2023/06/20 07:49:06;;;;;;;;;12.67;12.00;;;;;24.40;67.47;99757.47;5058496;28;45362;-71
2023/06/20 07:51:33;;;;;;;;;11.33;8.33;;;;;24.37;67.83;99757.63;5057869;28;45427;-73
2023/06/20 07:54:05;;;;;;;;;16.67;14.33;;;;;24.30;67.77;99748.09;5058193;28;45677;-74
2023/06/20 07:56:31;;;;;;;;;14.00;12.00;;;;;24.44;67.88;99755.56;5056208;28;45497;-77
2023/06/20 07:58:56;;;;;;;;;15.33;11.00;;;;;24.25;68.83;99744.72;5054362;28;45859;-74
2023/06/20 08:01:22;;;;;;;;;10.33;9.67;;;;;24.21;68.51;99754.69;5055615;28;45765;-75
2023/06/20 08:03:48;;;;;;;;;13.33;12.00;;;;;24.19;68.91;99751.19;5039506;28;45411;-78
2023/06/20 08:06:14;;;;;;;;;10.67;10.00;;;;;24.26;68.15;99762.50;5056697;28;45589;-76
2023/06/20 08:08:40;;;;;;;;;20.33;14.00;;;;;24.35;68.26;99767.47;5075976;28;45434;-77
2023/06/20 08:11:05;;;;;;;;;13.00;10.33;;;;;24.44;68.05;99778.72;5068658;28;45678;-76
2023/06/20 08:13:31;;;;;;;;;10.00;9.33;;;;;24.56;67.66;99797.81;5058356;28;45601;-74
2023/06/20 08:15:57;;;;;;;;;12.33;12.33;;;;;24.54;67.74;99813.03;5056344;28;45504;-74
2023/06/20 08:18:22;;;;;;;;;10.00;10.00;;;;;24.42;68.08;99806.34;5045437;28;46213;-73
2023/06/20 08:20:48;;;;;;;;;11.00;10.67;;;;;24.44;68.20;99832.13;5054442;28;45614;-73
2023/06/20 08:23:21;;;;;;;;;11.00;9.67;;;;;24.36;68.20;99819.06;5039440;28;46695;-74
2023/06/20 08:25:47;;;;;;;;;10.00;10.00;;;;;24.23;69.33;99799.97;5058136;28;45518;-74
2023/06/20 08:28:12;;;;;;;;;10.33;9.00;;;;;24.31;68.63;99802.34;5056803;28;45549;-72
2023/06/20 08:30:38;;;;;;;;;9.00;8.00;;;;;24.24;68.82;99804.38;5057905;28;45486;-72
2023/06/20 08:33:03;;;;;;;;;19.33;17.33;;;;;24.25;68.93;99803.44;5057580;28;45343;-73
2023/06/20 08:35:29;;;;;;;;;11.00;9.67;;;;;24.26;68.72;99802.53;5057160;28;45362;-73
2023/06/20 08:37:55;;;;;;;;;9.33;8.67;;;;;24.28;69.28;99794.47;5056798;28;45421;-73
2023/06/20 08:40:21;;;;;;;;;17.00;15.33;;;;;24.34;69.36;99800.44;5057287;28;45298;-72
2023/06/20 08:42:46;;;;;;;;;14.00;12.00;;;;;24.42;69.04;99802.81;5047068;28;45654;-73
2023/06/20 08:45:15;;;;;;;;;11.33;10.33;;;;;24.49;68.46;99792.75;5055360;28;45373;-72
2023/06/20 08:47:41;;;;;;;;;15.50;13.00;;;;;24.67;68.81;99792.06;5035892;28;45455;-73
2023/06/20 08:50:07;;;;;;;;;13.00;12.33;;;;;24.95;67.47;99783.78;5045062;28;45666;-73
2023/06/20 08:52:45;;;;;;;;;11.33;10.67;;;;;25.07;67.87;99786.84;5056588;28;45378;-73
2023/06/20 08:55:12;;;;;;;;;14.00;13.33;;;;;25.14;66.73;99778.53;5038701;28;45439;-72
2023/06/20 08:57:37;;;;;;;;;12.33;10.33;;;;;25.40;67.14;99781.91;5056714;28;46212;-73
2023/06/20 09:00:05;;;;;;;;;16.00;15.00;;;;;25.73;66.15;99771.53;5034584;28;45419;-73
2023/06/20 09:02:31;;;;;;;;;16.00;15.00;;;;;26.01;65.33;99781.03;5034619;28;45528;-72
2023/06/20 09:05:04;;;;;;;;;14.33;12.67;;;;;26.00;64.14;99768.56;5056470;28;45458;-73
2023/06/20 09:07:38;;;;;;;;;13.67;13.00;;;;;25.84;64.59;99776.38;5056681;28;46214;-73
2023/06/20 09:10:05;;;;;;;;;11.67;11.33;;;;;25.59;65.39;99780.19;5056942;28;45458;-74
2023/06/20 09:12:46;;;;;;;;;13.33;12.33;;;;;25.52;65.16;99777.84;5053592;28;45296;-76
2023/06/20 09:15:14;;;;;;;;;11.00;10.33;;;;;25.52;64.91;99773.34;5046570;28;45453;-81
2023/06/20 09:17:41;;;;;;;;;13.00;12.00;;;;;25.51;64.86;99779.66;5038513;28;45789;-74
2023/06/20 09:20:11;;;;;;;;;11.33;10.00;;;;;25.57;64.46;99770.50;5038351;28;45432;-79
2023/06/20 09:22:38;;;;;;;;;14.33;12.00;;;;;25.65;63.37;99763.00;5032968;28;45449;-80
2023/06/20 09:25:04;;;;;;;;;11.00;11.00;;;;;25.79;63.77;99773.06;5052792;28;45311;-78
2023/06/20 09:27:34;;;;;;;;;11.67;10.00;;;;;25.84;63.69;99763.00;5056137;28;46062;-80
2023/06/20 09:30:00;;;;;;;;;20.67;19.00;;;;;26.05;63.79;99782.63;5057250;28;45406;-78
2023/06/20 09:32:26;;;;;;;;;11.00;10.00;;;;;26.18;63.11;99782.91;5045768;28;45534;-75
2023/06/20 09:34:52;;;;;;;;;12.00;11.00;;;;;26.30;62.29;99773.41;5053342;28;45440;-77
2023/06/20 09:37:18;;;;;;;;;13.00;11.33;;;;;26.62;61.34;99781.75;5038864;28;45634;-75
2023/06/20 09:39:44;;;;;;;;;12.00;12.00;;;;;26.86;61.08;99785.03;5038455;28;45574;-73
2023/06/20 09:42:13;;;;;;;;;11.00;10.33;;;;;27.30;59.73;99788.22;5056168;28;45526;-74
2023/06/20 09:44:40;;;;;;;;;12.67;11.00;;;;;27.59;59.13;99780.44;5056396;28;45445;-74
2023/06/20 09:47:06;;;;;;;;;12.67;10.33;;;;;27.74;57.72;99787.69;5056419;28;45438;-73
2023/06/20 09:49:34;;;;;;;;;13.33;11.33;;;;;27.62;58.61;99760.66;5055260;28;45434;-74
2023/06/20 09:52:14;;;;;;;;;14.00;11.33;;;;;28.11;57.88;99782.16;5043073;28;45505;-76
2023/06/20 09:55:12;;;;;;;;;11.00;10.00;;;;;28.43;56.31;99776.81;5035467;28;45398;-75
2023/06/20 09:57:43;;;;;;;;;9.33;9.00;;;;;28.77;55.29;99767.75;5012927;28;46219;-73
2023/06/20 10:00:15;;;;;;;;;11.00;11.00;;;;;29.39;54.56;99765.00;5032014;28;45454;-74
2023/06/20 10:02:52;;;;;;;;;11.00;11.00;;;;;30.37;51.32;99774.19;5039519;28;45419;-74
2023/06/20 10:05:20;;;;;;;;;13.00;11.00;;;;;30.99;49.52;99775.56;5037368;28;45323;-75
2023/06/20 10:07:48;;;;;;;;;10.00;8.67;;;;;31.65;48.22;99777.31;5055689;28;46252;-75
2023/06/20 10:10:16;;;;;;;;;11.00;10.33;;;;;32.35;45.94;99767.00;5055452;28;47119;-75
2023/06/20 10:12:44;;;;;;;;;9.67;9.33;;;;;32.85;45.76;99771.41;5054663;28;45544;-73
2023/06/20 10:15:13;;;;;;;;;9.67;9.00;;;;;33.27;42.58;99760.16;5056109;28;45398;-74
2023/06/20 10:17:41;;;;;;;;;10.67;9.00;;;;;33.59;42.95;99764.91;5056024;28;46040;-74
2023/06/20 10:20:25;;;;;;;;;11.67;11.33;;;;;33.80;42.00;99744.25;5054883;28;45470;-74
2023/06/20 10:22:50;;;;;;;;;10.67;10.00;;;;;34.26;40.33;99762.28;5037688;28;45591;-74
2023/06/20 10:25:18;;;;;;;;;12.00;9.67;;;;;34.73;41.34;99753.06;5055982;28;45370;-76
2023/06/20 10:27:52;;;;;;;;;11.33;11.00;;;;;34.99;39.55;99783.44;5055300;28;45695;-77
2023/06/20 10:30:49;;;;;;;;;11.33;10.67;;;;;35.27;40.55;99781.97;5055784;28;45513;-76
2023/06/20 10:33:14;;;;;;;;;12.00;10.67;;;;;36.06;39.13;99765.16;5055512;28;45327;-76
2023/06/20 10:36:01;;;;;;;;;12.33;11.33;;;;;36.92;36.46;99776.41;5055696;28;45491;-75
2023/06/20 10:38:28;;;;;;;;;11.33;10.33;;;;;37.24;36.66;99783.47;5058122;28;45453;-75
2023/06/20 10:41:14;;;;;;;;;13.00;13.00;;;;;37.73;33.78;99770.66;5068818;28;45485;-77
2023/06/20 10:43:59;;;;;;;;;12.33;11.00;;;;;38.26;35.71;99788.28;5055888;28;45470;-76
2023/06/20 10:46:36;;;;;;;;;15.67;13.33;;;;;39.03;34.80;99786.06;5056606;28;45372;-75
2023/06/20 10:49:07;;;;;;;;;25.33;24.67;;;;;39.05;32.29;99759.47;5053958;28;47877;-76
2023/06/20 10:51:51;;;;;;;;;11.00;10.67;;;;;39.51;32.53;99767.53;5050681;28;45516;-75
2023/06/20 10:54:17;;;;;;;;;13.00;12.00;;;;;39.50;31.12;99776.78;5055544;28;45550;-76
2023/06/20 10:56:43;;;;;;;;;12.67;11.67;;;;;39.57;32.32;99775.09;5055822;28;45382;-78
2023/06/20 10:59:13;;;;;;;;;9.33;9.33;;;;;39.82;32.24;99770.66;5054997;28;45874;-76
2023/06/20 11:01:38;;;;;;;;;10.00;9.00;;;;;40.11;32.46;99773.06;5054173;28;45528;-76
2023/06/20 11:04:09;;;;;;;;;10.00;10.00;;;;;39.84;30.59;99775.97;5055845;28;45406;-77
2023/06/20 11:06:35;;;;;;;;;10.00;9.33;;;;;39.53;29.62;99765.50;5055652;28;45252;-77
2023/06/20 11:09:01;;;;;;;;;10.67;10.00;;;;;39.01;31.78;99768.16;5054472;28;46269;-76
2023/06/20 11:11:39;;;;;;;;;11.33;11.00;;;;;38.14;33.61;99765.78;5055694;28;45306;-76
2023/06/20 11:14:22;;;;;;;;;11.33;10.67;;;;;37.15;34.05;99774.31;5048470;28;45650;-76
2023/06/20 11:16:49;;;;;;;;;15.33;14.33;;;;;35.99;36.07;99761.25;5051293;28;45605;-76
2023/06/20 11:19:15;;;;;;;;;11.00;11.00;;;;;35.59;36.74;99772.88;5054172;28;46191;-77
2023/06/20 11:21:43;;;;;;;;;11.00;10.33;;;;;35.27;37.37;99776.53;5037428;28;45265;-75
2023/06/20 11:24:08;;;;;;;;;12.00;11.67;;;;;34.86;38.38;99775.47;5054933;28;45410;-74
2023/06/20 11:26:35;;;;;;;;;10.67;10.67;;;;;34.47;39.65;99745.22;5055273;28;45181;-76
2023/06/20 11:29:02;;;;;;;;;14.33;11.67;;;;;34.08;39.64;99777.25;5055504;28;46452;-75
2023/06/20 11:31:28;;;;;;;;;11.33;9.67;;;;;33.33;41.55;99781.34;5056215;28;45319;-76